sensor_id;sensor_type;location;lat;lon;timestamp;P1;durP1;ratioP1;P2;durP2;ratioP2
18072;SDS011;9161;47.348;9.648;2023-04-24T00:00:53;3.40;;;0.40;;
18072;SDS011;9161;47.348;9.648;2023-04-24T00:05:56;0.47;;;0.37;;
18072;SDS011;9161;47.348;9.648;2023-04-24T00:11:01;1.90;;;0.33;;
18072;SDS011;9161;47.348;9.648;2023-04-24T00:16:03;1.43;;;0.30;;
18072;SDS011;9161;47.348;9.648;2023-04-24T00:21:06;1.57;;;0.47;;
18072;SDS011;9161;47.348;9.648;2023-04-24T00:26:09;0.70;;;0.40;;
18072;SDS011;9161;47.348;9.648;2023-04-24T00:31:12;1.40;;;0.50;;
18072;SDS011;9161;47.348;9.648;2023-04-24T00:36:14;0.87;;;0.40;;
18072;SDS011;9161;47.348;9.648;2023-04-24T00:41:18;0.50;;;0.30;;
18072;SDS011;9161;47.348;9.648;2023-04-24T00:46:20;2.03;;;0.60;;
18072;SDS011;9161;47.348;9.648;2023-04-24T00:51:23;1.40;;;0.80;;
18072;SDS011;9161;47.348;9.648;2023-04-24T00:56:27;1.20;;;0.43;;
18072;SDS011;9161;47.348;9.648;2023-04-24T01:01:29;2.53;;;0.50;;
18072;SDS011;9161;47.348;9.648;2023-04-24T01:06:32;1.07;;;0.40;;
18072;SDS011;9161;47.348;9.648;2023-04-24T01:11:37;1.10;;;0.23;;
18072;SDS011;9161;47.348;9.648;2023-04-24T01:16:39;0.57;;;0.20;;
18072;SDS011;9161;47.348;9.648;2023-04-24T01:21:42;0.40;;;0.20;;
18072;SDS011;9161;47.348;9.648;2023-04-24T01:26:47;0.60;;;0.20;;
18072;SDS011;9161;47.348;9.648;2023-04-24T01:31:49;1.57;;;0.20;;
18072;SDS011;9161;47.348;9.648;2023-04-24T01:36:52;2.73;;;0.30;;
18072;SDS011;9161;47.348;9.648;2023-04-24T01:41:56;0.70;;;0.30;;
18072;SDS011;9161;47.348;9.648;2023-04-24T01:46:58;0.60;;;0.30;;
18072;SDS011;9161;47.348;9.648;2023-04-24T01:52:02;2.17;;;0.30;;
18072;SDS011;9161;47.348;9.648;2023-04-24T01:57:06;2.70;;;0.30;;
18072;SDS011;9161;47.348;9.648;2023-04-24T02:02:08;0.53;;;0.27;;
18072;SDS011;9161;47.348;9.648;2023-04-24T02:07:10;0.23;;;0.10;;
18072;SDS011;9161;47.348;9.648;2023-04-24T02:12:14;2.10;;;0.30;;
18072;SDS011;9161;47.348;9.648;2023-04-24T02:17:17;0.20;;;0.20;;
18072;SDS011;9161;47.348;9.648;2023-04-24T02:22:19;2.20;;;0.30;;
18072;SDS011;9161;47.348;9.648;2023-04-24T02:27:23;1.30;;;0.33;;
18072;SDS011;9161;47.348;9.648;2023-04-24T02:32:25;1.70;;;0.20;;
18072;SDS011;9161;47.348;9.648;2023-04-24T02:37:27;1.63;;;0.27;;
18072;SDS011;9161;47.348;9.648;2023-04-24T02:42:31;0.60;;;0.30;;
18072;SDS011;9161;47.348;9.648;2023-04-24T02:47:33;1.27;;;0.33;;
18072;SDS011;9161;47.348;9.648;2023-04-24T02:52:35;2.00;;;0.30;;
18072;SDS011;9161;47.348;9.648;2023-04-24T02:57:38;1.47;;;0.50;;
18072;SDS011;9161;47.348;9.648;2023-04-24T03:02:40;0.37;;;0.20;;
18072;SDS011;9161;47.348;9.648;2023-04-24T03:07:43;2.40;;;0.53;;
18072;SDS011;9161;47.348;9.648;2023-04-24T03:12:47;2.23;;;0.50;;
18072;SDS011;9161;47.348;9.648;2023-04-24T03:17:50;1.20;;;0.60;;
18072;SDS011;9161;47.348;9.648;2023-04-24T03:22:55;0.80;;;0.50;;
18072;SDS011;9161;47.348;9.648;2023-04-24T03:27:59;0.80;;;0.30;;
18072;SDS011;9161;47.348;9.648;2023-04-24T03:33:01;0.87;;;0.57;;
18072;SDS011;9161;47.348;9.648;2023-04-24T03:38:02;2.67;;;0.40;;
18072;SDS011;9161;47.348;9.648;2023-04-24T03:43:07;1.10;;;0.40;;
18072;SDS011;9161;47.348;9.648;2023-04-24T03:48:09;2.10;;;0.50;;
18072;SDS011;9161;47.348;9.648;2023-04-24T03:53:11;0.73;;;0.30;;
18072;SDS011;9161;47.348;9.648;2023-04-24T03:58:14;0.73;;;0.40;;
18072;SDS011;9161;47.348;9.648;2023-04-24T04:03:17;0.97;;;0.33;;
18072;SDS011;9161;47.348;9.648;2023-04-24T04:08:20;0.57;;;0.40;;
18072;SDS011;9161;47.348;9.648;2023-04-24T04:13:23;1.80;;;0.63;;
18072;SDS011;9161;47.348;9.648;2023-04-24T04:18:25;1.17;;;0.70;;
18072;SDS011;9161;47.348;9.648;2023-04-24T04:23:28;1.20;;;0.53;;
18072;SDS011;9161;47.348;9.648;2023-04-24T04:33:35;1.43;;;0.73;;
18072;SDS011;9161;47.348;9.648;2023-04-24T04:38:38;3.37;;;1.67;;
18072;SDS011;9161;47.348;9.648;2023-04-24T04:43:43;1.90;;;0.60;;
18072;SDS011;9161;47.348;9.648;2023-04-24T04:48:46;0.90;;;0.50;;
18072;SDS011;9161;47.348;9.648;2023-04-24T04:53:49;1.57;;;0.37;;
18072;SDS011;9161;47.348;9.648;2023-04-24T04:58:53;2.40;;;0.60;;
18072;SDS011;9161;47.348;9.648;2023-04-24T05:03:55;0.67;;;0.30;;
18072;SDS011;9161;47.348;9.648;2023-04-24T05:08:57;3.00;;;1.13;;
18072;SDS011;9161;47.348;9.648;2023-04-24T05:14:01;3.47;;;1.50;;
18072;SDS011;9161;47.348;9.648;2023-04-24T05:19:03;1.80;;;0.57;;
18072;SDS011;9161;47.348;9.648;2023-04-24T05:24:05;1.43;;;0.90;;
18072;SDS011;9161;47.348;9.648;2023-04-24T05:29:09;2.63;;;1.10;;
18072;SDS011;9161;47.348;9.648;2023-04-24T05:34:11;3.60;;;1.23;;
18072;SDS011;9161;47.348;9.648;2023-04-24T05:39:14;1.53;;;0.77;;
18072;SDS011;9161;47.348;9.648;2023-04-24T05:44:17;2.47;;;0.80;;
18072;SDS011;9161;47.348;9.648;2023-04-24T05:49:19;1.53;;;0.73;;
18072;SDS011;9161;47.348;9.648;2023-04-24T05:54:22;3.13;;;0.73;;
18072;SDS011;9161;47.348;9.648;2023-04-24T05:59:25;1.13;;;0.53;;
18072;SDS011;9161;47.348;9.648;2023-04-24T06:04:27;2.97;;;0.60;;
18072;SDS011;9161;47.348;9.648;2023-04-24T06:09:30;3.17;;;0.80;;
18072;SDS011;9161;47.348;9.648;2023-04-24T06:14:33;2.30;;;0.83;;
18072;SDS011;9161;47.348;9.648;2023-04-24T06:19:35;3.87;;;1.03;;
18072;SDS011;9161;47.348;9.648;2023-04-24T06:24:39;1.93;;;1.20;;
18072;SDS011;9161;47.348;9.648;2023-04-24T06:29:43;2.67;;;1.00;;
18072;SDS011;9161;47.348;9.648;2023-04-24T06:34:45;3.10;;;0.90;;
18072;SDS011;9161;47.348;9.648;2023-04-24T06:39:47;3.10;;;1.03;;
18072;SDS011;9161;47.348;9.648;2023-04-24T06:44:51;3.17;;;1.20;;
18072;SDS011;9161;47.348;9.648;2023-04-24T06:49:53;4.70;;;0.90;;
18072;SDS011;9161;47.348;9.648;2023-04-24T06:54:59;3.10;;;0.90;;
18072;SDS011;9161;47.348;9.648;2023-04-24T07:00:04;1.67;;;1.07;;
18072;SDS011;9161;47.348;9.648;2023-04-24T07:05:09;0.53;;;0.50;;
18072;SDS011;9161;47.348;9.648;2023-04-24T07:10:12;0.37;;;0.30;;
18072;SDS011;9161;47.348;9.648;2023-04-24T07:15:16;0.93;;;0.30;;
18072;SDS011;9161;47.348;9.648;2023-04-24T07:20:18;0.10;;;0.10;;
18072;SDS011;9161;47.348;9.648;2023-04-24T07:25:22;1.00;;;0.10;;
18072;SDS011;9161;47.348;9.648;2023-04-24T07:30:25;0.77;;;0.27;;
18072;SDS011;9161;47.348;9.648;2023-04-24T07:35:29;0.80;;;0.20;;
18072;SDS011;9161;47.348;9.648;2023-04-24T07:40:31;3.03;;;0.10;;
18072;SDS011;9161;47.348;9.648;2023-04-24T07:45:35;0.67;;;0.40;;
18072;SDS011;9161;47.348;9.648;2023-04-24T07:50:39;1.03;;;0.30;;
18072;SDS011;9161;47.348;9.648;2023-04-24T07:55:41;0.60;;;0.50;;
18072;SDS011;9161;47.348;9.648;2023-04-24T08:00:44;0.90;;;0.50;;
18072;SDS011;9161;47.348;9.648;2023-04-24T08:05:46;1.50;;;0.57;;
18072;SDS011;9161;47.348;9.648;2023-04-24T08:10:51;0.60;;;0.40;;
18072;SDS011;9161;47.348;9.648;2023-04-24T08:15:54;1.27;;;0.43;;
18072;SDS011;9161;47.348;9.648;2023-04-24T08:20:58;0.83;;;0.40;;
18072;SDS011;9161;47.348;9.648;2023-04-24T08:26:01;0.77;;;0.40;;
18072;SDS011;9161;47.348;9.648;2023-04-24T08:31:06;1.00;;;0.40;;
18072;SDS011;9161;47.348;9.648;2023-04-24T08:36:09;2.73;;;1.67;;
18072;SDS011;9161;47.348;9.648;2023-04-24T08:41:11;0.60;;;0.40;;
18072;SDS011;9161;47.348;9.648;2023-04-24T08:46:17;1.40;;;0.40;;
18072;SDS011;9161;47.348;9.648;2023-04-24T08:51:21;0.73;;;0.50;;
18072;SDS011;9161;47.348;9.648;2023-04-24T08:56:24;0.73;;;0.40;;
18072;SDS011;9161;47.348;9.648;2023-04-24T09:01:28;0.60;;;0.30;;
18072;SDS011;9161;47.348;9.648;2023-04-24T09:06:33;1.13;;;0.50;;
18072;SDS011;9161;47.348;9.648;2023-04-24T09:11:36;2.33;;;0.70;;
18072;SDS011;9161;47.348;9.648;2023-04-24T09:16:40;1.43;;;0.63;;
18072;SDS011;9161;47.348;9.648;2023-04-24T09:21:45;2.50;;;0.70;;
18072;SDS011;9161;47.348;9.648;2023-04-24T09:26:48;1.43;;;0.30;;
18072;SDS011;9161;47.348;9.648;2023-04-24T09:31:58;1.43;;;0.30;;
18072;SDS011;9161;47.348;9.648;2023-04-24T09:37:01;1.00;;;0.30;;
18072;SDS011;9161;47.348;9.648;2023-04-24T09:42:03;0.43;;;0.30;;
18072;SDS011;9161;47.348;9.648;2023-04-24T09:47:07;0.87;;;0.33;;
18072;SDS011;9161;47.348;9.648;2023-04-24T09:52:11;1.33;;;0.30;;
18072;SDS011;9161;47.348;9.648;2023-04-24T09:57:14;0.77;;;0.40;;
18072;SDS011;9161;47.348;9.648;2023-04-24T10:02:18;0.50;;;0.40;;
18072;SDS011;9161;47.348;9.648;2023-04-24T10:07:21;0.90;;;0.50;;
18072;SDS011;9161;47.348;9.648;2023-04-24T10:12:23;0.90;;;0.50;;
18072;SDS011;9161;47.348;9.648;2023-04-24T10:17:28;0.70;;;0.40;;
18072;SDS011;9161;47.348;9.648;2023-04-24T10:22:30;2.33;;;0.70;;
18072;SDS011;9161;47.348;9.648;2023-04-24T10:27:34;1.90;;;0.70;;
18072;SDS011;9161;47.348;9.648;2023-04-24T10:32:38;0.90;;;0.70;;
18072;SDS011;9161;47.348;9.648;2023-04-24T10:37:42;3.60;;;0.90;;
18072;SDS011;9161;47.348;9.648;2023-04-24T10:42:49;3.23;;;0.90;;
18072;SDS011;9161;47.348;9.648;2023-04-24T10:47:59;1.70;;;0.90;;
18072;SDS011;9161;47.348;9.648;2023-04-24T10:53:05;1.10;;;0.70;;
18072;SDS011;9161;47.348;9.648;2023-04-24T10:58:09;0.83;;;0.80;;
18072;SDS011;9161;47.348;9.648;2023-04-24T11:03:26;1.07;;;0.53;;
18072;SDS011;9161;47.348;9.648;2023-04-24T11:08:30;1.03;;;0.73;;
18072;SDS011;9161;47.348;9.648;2023-04-24T11:19:10;3.10;;;0.70;;
18072;SDS011;9161;47.348;9.648;2023-04-24T11:29:46;3.53;;;0.80;;
18072;SDS011;9161;47.348;9.648;2023-04-24T11:34:52;1.67;;;0.70;;
18072;SDS011;9161;47.348;9.648;2023-04-24T11:39:56;2.13;;;0.80;;
18072;SDS011;9161;47.348;9.648;2023-04-24T11:44:59;1.40;;;0.80;;
18072;SDS011;9161;47.348;9.648;2023-04-24T11:50:04;1.70;;;1.00;;
18072;SDS011;9161;47.348;9.648;2023-04-24T11:55:22;3.43;;;0.93;;
18072;SDS011;9161;47.348;9.648;2023-04-24T12:00:27;1.87;;;1.00;;
18072;SDS011;9161;47.348;9.648;2023-04-24T12:05:36;1.63;;;0.90;;
18072;SDS011;9161;47.348;9.648;2023-04-24T12:10:40;2.77;;;1.17;;
18072;SDS011;9161;47.348;9.648;2023-04-24T12:15:42;1.83;;;0.90;;
18072;SDS011;9161;47.348;9.648;2023-04-24T12:20:46;3.23;;;0.90;;
18072;SDS011;9161;47.348;9.648;2023-04-24T12:25:50;3.77;;;1.20;;
18072;SDS011;9161;47.348;9.648;2023-04-24T12:30:53;4.93;;;1.57;;
18072;SDS011;9161;47.348;9.648;2023-04-24T12:35:57;3.20;;;1.50;;
18072;SDS011;9161;47.348;9.648;2023-04-24T12:41:03;6.60;;;1.40;;
18072;SDS011;9161;47.348;9.648;2023-04-24T12:46:06;3.00;;;1.20;;
18072;SDS011;9161;47.348;9.648;2023-04-24T12:51:10;9.00;;;1.80;;
18072;SDS011;9161;47.348;9.648;2023-04-24T12:56:12;3.40;;;0.90;;
18072;SDS011;9161;47.348;9.648;2023-04-24T13:01:14;1.60;;;0.80;;
18072;SDS011;9161;47.348;9.648;2023-04-24T13:06:18;1.63;;;0.80;;
18072;SDS011;9161;47.348;9.648;2023-04-24T13:11:21;1.93;;;1.00;;
18072;SDS011;9161;47.348;9.648;2023-04-24T13:16:23;1.67;;;1.07;;
18072;SDS011;9161;47.348;9.648;2023-04-24T13:21:27;7.23;;;1.20;;
18072;SDS011;9161;47.348;9.648;2023-04-24T13:26:31;2.40;;;1.30;;
18072;SDS011;9161;47.348;9.648;2023-04-24T13:31:33;1.73;;;1.00;;
18072;SDS011;9161;47.348;9.648;2023-04-24T13:36:37;3.17;;;1.30;;
18072;SDS011;9161;47.348;9.648;2023-04-24T13:41:39;1.70;;;1.10;;
18072;SDS011;9161;47.348;9.648;2023-04-24T13:46:42;2.97;;;1.00;;
18072;SDS011;9161;47.348;9.648;2023-04-24T13:51:46;3.33;;;1.00;;
18072;SDS011;9161;47.348;9.648;2023-04-24T13:56:49;2.57;;;0.90;;
18072;SDS011;9161;47.348;9.648;2023-04-24T14:01:51;3.33;;;0.97;;
18072;SDS011;9161;47.348;9.648;2023-04-24T14:06:54;3.60;;;1.20;;
18072;SDS011;9161;47.348;9.648;2023-04-24T14:11:56;2.70;;;1.10;;
18072;SDS011;9161;47.348;9.648;2023-04-24T14:16:58;1.93;;;1.00;;
18072;SDS011;9161;47.348;9.648;2023-04-24T14:22:02;1.60;;;1.30;;
18072;SDS011;9161;47.348;9.648;2023-04-24T14:27:04;2.70;;;0.77;;
18072;SDS011;9161;47.348;9.648;2023-04-24T14:32:06;1.93;;;0.70;;
18072;SDS011;9161;47.348;9.648;2023-04-24T14:37:10;1.60;;;0.70;;
18072;SDS011;9161;47.348;9.648;2023-04-24T14:42:12;2.30;;;0.83;;
18072;SDS011;9161;47.348;9.648;2023-04-24T14:47:17;2.57;;;0.70;;
18072;SDS011;9161;47.348;9.648;2023-04-24T14:52:22;1.93;;;0.90;;
18072;SDS011;9161;47.348;9.648;2023-04-24T14:57:24;1.60;;;1.00;;
18072;SDS011;9161;47.348;9.648;2023-04-24T15:02:26;2.63;;;0.90;;
18072;SDS011;9161;47.348;9.648;2023-04-24T15:07:30;1.10;;;0.80;;
18072;SDS011;9161;47.348;9.648;2023-04-24T15:12:33;2.15;;;0.60;;
18072;SDS011;9161;47.348;9.648;2023-04-24T15:17:35;1.27;;;0.70;;
18072;SDS011;9161;47.348;9.648;2023-04-24T15:22:39;1.90;;;0.90;;
18072;SDS011;9161;47.348;9.648;2023-04-24T15:27:41;0.90;;;0.70;;
18072;SDS011;9161;47.348;9.648;2023-04-24T15:32:44;5.65;;;1.63;;
18072;SDS011;9161;47.348;9.648;2023-04-24T15:37:48;5.97;;;1.17;;
18072;SDS011;9161;47.348;9.648;2023-04-24T15:42:50;2.93;;;1.10;;
18072;SDS011;9161;47.348;9.648;2023-04-24T15:47:52;3.63;;;1.50;;
18072;SDS011;9161;47.348;9.648;2023-04-24T15:52:56;2.20;;;1.10;;
18072;SDS011;9161;47.348;9.648;2023-04-24T15:57:58;3.53;;;1.87;;
18072;SDS011;9161;47.348;9.648;2023-04-24T16:03:01;4.67;;;1.40;;
18072;SDS011;9161;47.348;9.648;2023-04-24T16:08:10;4.27;;;1.77;;
18072;SDS011;9161;47.348;9.648;2023-04-24T16:13:13;2.80;;;1.47;;
18072;SDS011;9161;47.348;9.648;2023-04-24T16:18:17;1.70;;;1.00;;
18072;SDS011;9161;47.348;9.648;2023-04-24T16:23:21;1.77;;;0.87;;
18072;SDS011;9161;47.348;9.648;2023-04-24T16:28:23;1.83;;;0.90;;
18072;SDS011;9161;47.348;9.648;2023-04-24T16:33:27;1.80;;;0.93;;
18072;SDS011;9161;47.348;9.648;2023-04-24T16:38:32;2.92;;;0.77;;
18072;SDS011;9161;47.348;9.648;2023-04-24T16:43:34;1.73;;;0.80;;
18072;SDS011;9161;47.348;9.648;2023-04-24T16:48:36;3.10;;;0.70;;
18072;SDS011;9161;47.348;9.648;2023-04-24T16:53:40;1.13;;;0.75;;
18072;SDS011;9161;47.348;9.648;2023-04-24T16:58:42;2.65;;;1.08;;
18072;SDS011;9161;47.348;9.648;2023-04-24T17:03:45;1.98;;;1.00;;
18072;SDS011;9161;47.348;9.648;2023-04-24T17:08:49;2.47;;;0.83;;
18072;SDS011;9161;47.348;9.648;2023-04-24T17:13:52;2.20;;;1.23;;
18072;SDS011;9161;47.348;9.648;2023-04-24T17:18:55;1.50;;;1.10;;
18072;SDS011;9161;47.348;9.648;2023-04-24T17:24:01;1.53;;;0.93;;
18072;SDS011;9161;47.348;9.648;2023-04-24T17:29:04;2.23;;;1.40;;
18072;SDS011;9161;47.348;9.648;2023-04-24T17:34:06;2.67;;;1.17;;
18072;SDS011;9161;47.348;9.648;2023-04-24T17:39:11;3.17;;;1.63;;
18072;SDS011;9161;47.348;9.648;2023-04-24T17:44:14;2.70;;;1.77;;
18072;SDS011;9161;47.348;9.648;2023-04-24T17:49:18;5.40;;;1.83;;
18072;SDS011;9161;47.348;9.648;2023-04-24T17:54:24;2.90;;;2.20;;
18072;SDS011;9161;47.348;9.648;2023-04-24T17:59:27;4.67;;;2.40;;
18072;SDS011;9161;47.348;9.648;2023-04-24T18:04:30;5.07;;;2.83;;
18072;SDS011;9161;47.348;9.648;2023-04-24T18:09:35;3.07;;;2.10;;
18072;SDS011;9161;47.348;9.648;2023-04-24T18:14:37;4.13;;;1.20;;
18072;SDS011;9161;47.348;9.648;2023-04-24T18:19:40;4.03;;;1.30;;
18072;SDS011;9161;47.348;9.648;2023-04-24T18:24:44;3.47;;;1.20;;
18072;SDS011;9161;47.348;9.648;2023-04-24T18:29:48;2.07;;;1.10;;
18072;SDS011;9161;47.348;9.648;2023-04-24T18:34:51;2.77;;;1.43;;
18072;SDS011;9161;47.348;9.648;2023-04-24T18:39:57;3.60;;;1.20;;
18072;SDS011;9161;47.348;9.648;2023-04-24T18:45:00;4.40;;;1.40;;
18072;SDS011;9161;47.348;9.648;2023-04-24T18:50:04;4.03;;;1.67;;
18072;SDS011;9161;47.348;9.648;2023-04-24T18:55:09;4.40;;;1.77;;
18072;SDS011;9161;47.348;9.648;2023-04-24T19:00:12;2.63;;;1.77;;
18072;SDS011;9161;47.348;9.648;2023-04-24T19:05:17;7.47;;;2.67;;
18072;SDS011;9161;47.348;9.648;2023-04-24T19:10:21;6.10;;;3.27;;
18072;SDS011;9161;47.348;9.648;2023-04-24T19:15:28;5.17;;;2.33;;
18072;SDS011;9161;47.348;9.648;2023-04-24T19:20:33;6.33;;;2.90;;
18072;SDS011;9161;47.348;9.648;2023-04-24T19:25:38;4.93;;;3.03;;
18072;SDS011;9161;47.348;9.648;2023-04-24T19:30:41;3.67;;;2.30;;
18072;SDS011;9161;47.348;9.648;2023-04-24T19:35:44;5.63;;;2.53;;
18072;SDS011;9161;47.348;9.648;2023-04-24T19:40:49;18.10;;;6.30;;
18072;SDS011;9161;47.348;9.648;2023-04-24T19:45:54;27.00;;;9.50;;
18072;SDS011;9161;47.348;9.648;2023-04-24T19:50:57;5.53;;;3.10;;
18072;SDS011;9161;47.348;9.648;2023-04-24T19:56:02;6.07;;;3.53;;
18072;SDS011;9161;47.348;9.648;2023-04-24T20:01:04;5.90;;;3.50;;
18072;SDS011;9161;47.348;9.648;2023-04-24T20:06:07;8.83;;;3.50;;
18072;SDS011;9161;47.348;9.648;2023-04-24T20:11:12;6.43;;;3.80;;
18072;SDS011;9161;47.348;9.648;2023-04-24T20:16:15;7.07;;;3.93;;
18072;SDS011;9161;47.348;9.648;2023-04-24T20:21:18;7.03;;;4.30;;
18072;SDS011;9161;47.348;9.648;2023-04-24T20:26:22;9.47;;;5.07;;
18072;SDS011;9161;47.348;9.648;2023-04-24T20:31:25;7.17;;;4.37;;
18072;SDS011;9161;47.348;9.648;2023-04-24T20:36:27;6.30;;;3.60;;
18072;SDS011;9161;47.348;9.648;2023-04-24T20:41:32;6.37;;;3.60;;
18072;SDS011;9161;47.348;9.648;2023-04-24T20:46:35;8.07;;;4.30;;
18072;SDS011;9161;47.348;9.648;2023-04-24T20:51:37;4.97;;;3.40;;
18072;SDS011;9161;47.348;9.648;2023-04-24T20:56:41;5.70;;;3.17;;
18072;SDS011;9161;47.348;9.648;2023-04-24T21:01:43;6.57;;;3.47;;
18072;SDS011;9161;47.348;9.648;2023-04-24T21:06:47;5.67;;;3.10;;
18072;SDS011;9161;47.348;9.648;2023-04-24T21:11:51;6.67;;;2.80;;
18072;SDS011;9161;47.348;9.648;2023-04-24T21:16:55;3.77;;;2.60;;
18072;SDS011;9161;47.348;9.648;2023-04-24T21:22:15;4.37;;;2.97;;
18072;SDS011;9161;47.348;9.648;2023-04-24T21:28:06;8.03;;;3.10;;
18072;SDS011;9161;47.348;9.648;2023-04-24T21:33:37;5.70;;;3.70;;
18072;SDS011;9161;47.348;9.648;2023-04-24T21:38:40;7.73;;;4.00;;
18072;SDS011;9161;47.348;9.648;2023-04-24T21:43:43;6.80;;;4.33;;
18072;SDS011;9161;47.348;9.648;2023-04-24T21:48:49;9.83;;;4.50;;
18072;SDS011;9161;47.348;9.648;2023-04-24T21:53:51;7.77;;;3.80;;
18072;SDS011;9161;47.348;9.648;2023-04-24T21:58:55;5.00;;;3.60;;
18072;SDS011;9161;47.348;9.648;2023-04-24T22:03:57;7.20;;;3.77;;
18072;SDS011;9161;47.348;9.648;2023-04-24T22:09:02;8.73;;;3.70;;
18072;SDS011;9161;47.348;9.648;2023-04-24T22:14:07;6.07;;;3.93;;
18072;SDS011;9161;47.348;9.648;2023-04-24T22:19:10;10.13;;;4.73;;
18072;SDS011;9161;47.348;9.648;2023-04-24T22:24:12;8.57;;;4.53;;
18072;SDS011;9161;47.348;9.648;2023-04-24T22:29:16;6.70;;;4.43;;
18072;SDS011;9161;47.348;9.648;2023-04-24T22:34:18;8.60;;;3.37;;
18072;SDS011;9161;47.348;9.648;2023-04-24T22:39:21;7.83;;;3.83;;
18072;SDS011;9161;47.348;9.648;2023-04-24T22:44:24;6.57;;;4.17;;
18072;SDS011;9161;47.348;9.648;2023-04-24T22:49:27;7.60;;;3.87;;
18072;SDS011;9161;47.348;9.648;2023-04-24T22:54:31;7.97;;;3.50;;
18072;SDS011;9161;47.348;9.648;2023-04-24T22:59:35;5.33;;;3.70;;
18072;SDS011;9161;47.348;9.648;2023-04-24T23:04:37;8.67;;;3.80;;
18072;SDS011;9161;47.348;9.648;2023-04-24T23:09:39;8.43;;;3.37;;
18072;SDS011;9161;47.348;9.648;2023-04-24T23:14:43;7.07;;;3.53;;
18072;SDS011;9161;47.348;9.648;2023-04-24T23:19:45;5.43;;;3.50;;
18072;SDS011;9161;47.348;9.648;2023-04-24T23:24:48;9.43;;;4.00;;
18072;SDS011;9161;47.348;9.648;2023-04-24T23:29:52;8.47;;;4.23;;
18072;SDS011;9161;47.348;9.648;2023-04-24T23:34:54;7.20;;;4.60;;
18072;SDS011;9161;47.348;9.648;2023-04-24T23:39:57;8.47;;;4.23;;
18072;SDS011;9161;47.348;9.648;2023-04-24T23:45:00;7.13;;;4.37;;
18072;SDS011;9161;47.348;9.648;2023-04-24T23:50:02;9.07;;;4.40;;
18072;SDS011;9161;47.348;9.648;2023-04-24T23:55:05;7.27;;;4.40;;
